Time;durP1;ratioP1;P1;durP2;ratioP2;P2;SDS_P1;SDS_P2;PMS_P1;PMS_P2;Temp;Humidity;BMP_temperature;BMP_pressure;BME280_temperature;BME280_humidity;BME280_pressure;Samples;Min_cycle;Max_cycle;Signal;HPM_P1;HPM_P2
2021/04/26 00:00:05;;;;;;;;;;;;;;;-142.75;61.39;79498.47;5073484;28;19916;-74
2021/04/26 00:02:30;;;;;;;;;;;;;;;-142.75;61.40;79490.59;5091516;28;20423;-74
2021/04/26 00:04:55;;;;;;;;;;;;;;;-142.75;61.45;79504.41;5091818;28;19920;-73
2021/04/26 00:07:21;;;;;;;;;;;;;;;-142.75;61.76;79506.38;5073762;28;19956;-74
2021/04/26 00:09:46;;;;;;;;;;;;;;;-142.75;61.93;79502.44;5073375;28;20004;-73
2021/04/26 00:12:11;;;;;;;;;;;;;;;-142.75;61.65;79492.56;5091416;28;19923;-73
2021/04/26 00:14:36;;;;;;;;;;;;;;;-142.75;61.59;79480.75;5091755;28;19962;-73
2021/04/26 00:17:02;;;;;;;;;;;;;;;-142.75;61.28;79474.84;5098733;28;19927;-73
2021/04/26 00:19:27;;;;;;;;;;;;;;;-142.75;61.08;79465.00;5089993;28;20025;-74
2021/04/26 00:21:52;;;;;;;;;;;;;;;-142.75;61.03;79455.16;5073176;28;19916;-73
2021/04/26 00:24:18;;;;;;;;;;;;;;;-142.75;61.21;79465.00;5079842;28;20377;-73
2021/04/26 00:26:43;;;;;;;;;;;;;;;-142.75;61.39;79470.91;5111765;28;19924;-73
2021/04/26 00:29:08;;;;;;;;;;;;;;;-142.75;61.27;79449.25;5111637;28;19920;-74
2021/04/26 00:31:33;;;;;;;;;;;;;;;-142.75;60.94;79441.34;5111458;28;19935;-73
2021/04/26 00:33:58;;;;;;;;;;;;;;;-142.75;60.82;79441.34;5111621;28;19964;-73
2021/04/26 00:36:24;;;;;;;;;;;;;;;-142.75;61.24;79445.28;5105259;28;19916;-73
2021/04/26 00:38:49;;;;;;;;;;;;;;;-142.75;60.97;79445.28;5076359;28;20300;-74
2021/04/26 00:41:14;;;;;;;;;;;;;;;-142.75;61.41;79441.34;5111363;28;19954;-72
2021/04/26 00:43:39;;;;;;;;;;;;;;;-142.75;61.29;79453.19;5111689;28;19968;-73
2021/04/26 00:46:04;;;;;;;;;;;;;;;-142.75;61.09;79453.19;5093143;28;19916;-73
2021/04/26 00:48:30;;;;;;;;;;;;;;;-142.75;61.42;79459.09;5078222;28;20270;-73
2021/04/26 00:50:55;;;;;;;;;;;;;;;-142.75;61.68;79465.00;5072835;28;19916;-72
2021/04/26 00:53:20;;;;;;;;;;;;;;;-142.75;61.64;79465.00;5091273;28;19923;-73
2021/04/26 00:55:46;;;;;;;;;;;;;;;-142.75;61.65;79461.06;5073253;28;19935;-72
2021/04/26 00:58:12;;;;;;;;;;;;;;;-142.75;61.76;79457.13;5091165;28;19916;-73
2021/04/26 01:00:37;;;;;;;;;;;;;;;-142.75;61.79;79465.00;5090801;28;20313;-74
2021/04/26 01:03:02;;;;;;;;;;;;;;;-142.75;61.88;79468.94;5090881;28;19920;-74
2021/04/26 01:05:29;;;;;;;;;;;;;;;-142.75;62.00;79466.97;5091177;28;19916;-73
2021/04/26 01:07:54;;;;;;;;;;;;;;;-142.75;62.20;79457.13;5091034;28;19920;-73
2021/04/26 01:10:22;;;;;;;;;;;;;;;-142.75;61.75;79470.91;5090288;28;19927;-71
2021/04/26 01:13:06;;;;;;;;;;;;;;;-142.75;61.80;79463.03;5094998;28;20006;-75
2021/04/26 01:15:35;;;;;;;;;;;;;;;-142.75;62.21;79465.00;5112889;28;19923;-72
2021/04/26 01:18:04;;;;;;;;;;;;;;;-142.75;62.29;79465.00;5109202;28;20282;-73
2021/04/26 01:20:38;;;;;;;;;;;;;;;-142.75;62.38;79468.94;5076495;28;19922;-75
2021/04/26 01:23:22;;;;;;;;;;;;;;;-142.75;62.41;79472.88;5095027;28;20447;-74
2021/04/26 01:25:48;;;;;;;;;;;;;;;-142.75;62.33;79461.06;5093599;28;19969;-73
2021/04/26 01:28:23;;;;;;;;;;;;;;;-142.75;62.24;79461.06;5076383;28;19926;-70
2021/04/26 01:31:07;;;;;;;;;;;;;;;-142.75;62.04;79453.19;5101288;28;19915;-73
2021/04/26 01:33:33;;;;;;;;;;;;;;;-142.75;62.55;79463.03;5115186;28;19920;-73
2021/04/26 01:36:01;;;;;;;;;;;;;;;-142.75;62.14;79476.81;5115141;28;19916;-73
2021/04/26 01:38:28;;;;;;;;;;;;;;;-142.75;62.43;79466.97;5096274;28;19963;-74
2021/04/26 01:40:54;;;;;;;;;;;;;;;-142.75;62.55;79476.81;5112447;28;20342;-73
2021/04/26 01:43:21;;;;;;;;;;;;;;;-142.75;62.48;79484.69;5109290;28;19915;-73
2021/04/26 01:45:48;;;;;;;;;;;;;;;-142.75;62.49;79504.41;5088414;28;19916;-73
2021/04/26 01:48:14;;;;;;;;;;;;;;;-142.75;62.67;79496.50;5076148;28;19951;-72
2021/04/26 01:50:40;;;;;;;;;;;;;;;-142.75;63.11;79484.69;5080270;28;20361;-72
2021/04/26 01:53:06;;;;;;;;;;;;;;;-142.75;62.93;79474.84;5088818;28;20006;-73
2021/04/26 01:55:31;;;;;;;;;;;;;;;-142.75;62.61;79492.56;5094414;28;20374;-73
2021/04/26 01:57:57;;;;;;;;;;;;;;;-142.75;62.83;79492.56;5079498;28;19916;-73
2021/04/26 02:00:26;;;;;;;;;;;;;;;-142.75;62.80;79490.59;5114302;28;19926;-73
2021/04/26 02:02:51;;;;;;;;;;;;;;;-142.75;62.67;79496.50;5114591;28;19923;-73
2021/04/26 02:05:18;;;;;;;;;;;;;;;-142.75;62.71;79504.41;5114468;28;19915;-73
2021/04/26 02:07:45;;;;;;;;;;;;;;;-142.75;63.25;79512.28;5093907;28;20007;-71
2021/04/26 02:10:12;;;;;;;;;;;;;;;-142.75;63.24;79512.28;5093555;28;20409;-73
2021/04/26 02:12:37;;;;;;;;;;;;;;;-142.75;63.01;79512.28;5095078;28;19923;-75
2021/04/26 02:15:04;;;;;;;;;;;;;;;-142.75;63.20;79526.06;5114211;28;19920;-73
2021/04/26 02:17:29;;;;;;;;;;;;;;;-142.75;63.57;79516.22;5096053;28;19978;-73
2021/04/26 02:19:54;;;;;;;;;;;;;;;-142.75;63.34;79516.22;5114156;28;20391;-72
2021/04/26 02:22:19;;;;;;;;;;;;;;;-142.75;63.44;79512.28;5113440;28;20002;-75
2021/04/26 02:24:45;;;;;;;;;;;;;;;-142.75;63.33;79514.25;5097143;28;20695;-73
2021/04/26 02:27:10;;;;;;;;;;;;;;;-142.75;63.45;79512.28;5093729;28;19931;-73
2021/04/26 02:29:35;;;;;;;;;;;;;;;-142.75;63.73;79512.28;5093571;28;20298;-73
2021/04/26 02:32:04;;;;;;;;;;;;;;;-142.75;63.54;79508.34;5106383;28;19923;-73
2021/04/26 02:34:34;;;;;;;;;;;;;;;-142.75;63.61;79508.34;5101106;28;20397;-73
2021/04/26 02:37:01;;;;;;;;;;;;;;;-142.75;63.51;79502.44;5093583;28;19920;-73
2021/04/26 02:39:29;;;;;;;;;;;;;;;-142.75;63.41;79500.47;5093481;28;19916;-74
2021/04/26 02:41:54;;;;;;;;;;;;;;;-142.75;63.34;79506.38;5078084;28;19919;-73
2021/04/26 02:44:19;;;;;;;;;;;;;;;-142.75;63.39;79510.31;5113788;28;20380;-73
2021/04/26 02:46:45;;;;;;;;;;;;;;;-142.75;63.64;79512.28;5113740;28;19954;-74
2021/04/26 02:49:11;;;;;;;;;;;;;;;-142.75;63.61;79512.28;5112810;28;20014;-73
2021/04/26 02:51:37;;;;;;;;;;;;;;;-142.75;63.79;79506.38;5112832;28;19966;-73
2021/04/26 02:54:04;;;;;;;;;;;;;;;-142.75;63.59;79510.31;5113662;28;19973;-72
2021/04/26 02:56:29;;;;;;;;;;;;;;;-142.75;63.71;79514.25;5109279;28;19966;-73
2021/04/26 02:58:55;;;;;;;;;;;;;;;-142.75;63.98;79514.25;5101389;28;19959;-73
2021/04/26 03:01:21;;;;;;;;;;;;;;;-142.75;63.72;79508.34;5095771;28;19924;-75
2021/04/26 03:03:47;;;;;;;;;;;;;;;-142.75;63.86;79504.41;5095157;28;19960;-73
2021/04/26 03:06:13;;;;;;;;;;;;;;;-142.75;64.23;79490.59;5091100;28;19923;-72
2021/04/26 03:08:39;;;;;;;;;;;;;;;-142.75;64.29;79496.50;5113068;28;20249;-73
2021/04/26 03:11:06;;;;;;;;;;;;;;;-142.75;64.36;79498.47;5110538;28;20000;-72
2021/04/26 03:13:31;;;;;;;;;;;;;;;-142.75;64.18;79506.38;5102568;28;19916;-74
2021/04/26 03:15:57;;;;;;;;;;;;;;;-142.75;64.29;79508.34;5077561;28;19935;-73
2021/04/26 03:18:23;;;;;;;;;;;;;;;-142.75;64.29;79508.34;5074398;28;19920;-73
2021/04/26 03:20:48;;;;;;;;;;;;;;;-142.75;64.53;79504.41;5110676;28;19915;-73
2021/04/26 03:23:19;;;;;;;;;;;;;;;-142.75;64.49;79494.53;5094734;28;19916;-72
2021/04/26 03:25:45;;;;;;;;;;;;;;;-142.75;64.07;79500.47;5112960;28;19919;-73
2021/04/26 03:28:10;;;;;;;;;;;;;;;-142.75;64.08;79492.56;5112930;28;19916;-72
2021/04/26 03:30:36;;;;;;;;;;;;;;;-142.75;63.76;79508.34;5112448;28;19923;-73
2021/04/26 03:33:01;;;;;;;;;;;;;;;-142.75;63.88;79504.41;5111944;28;20274;-73
2021/04/26 03:35:26;;;;;;;;;;;;;;;-142.75;64.30;79498.47;5104196;28;19916;-73
2021/04/26 03:37:52;;;;;;;;;;;;;;;-142.75;64.41;79510.31;5092401;28;19920;-73
2021/04/26 03:40:19;;;;;;;;;;;;;;;-142.75;64.27;79502.44;5092222;28;19923;-72
2021/04/26 03:42:44;;;;;;;;;;;;;;;-142.75;64.34;79506.38;5072815;28;19965;-73
2021/04/26 03:45:12;;;;;;;;;;;;;;;-142.75;64.40;79504.41;5092171;28;19924;-73
2021/04/26 03:47:37;;;;;;;;;;;;;;;-142.75;64.34;79504.41;5092172;28;19916;-73
2021/04/26 03:50:03;;;;;;;;;;;;;;;-142.75;64.37;79496.50;5091983;28;19965;-72
2021/04/26 03:52:28;;;;;;;;;;;;;;;-142.75;64.42;79502.44;5073675;28;20385;-73
2021/04/26 03:54:53;;;;;;;;;;;;;;;-142.75;64.47;79500.47;5091377;28;20383;-73
2021/04/26 03:57:18;;;;;;;;;;;;;;;-142.75;64.14;79502.44;5091954;28;20006;-73
2021/04/26 03:59:44;;;;;;;;;;;;;;;-142.75;63.86;79516.22;5073494;28;20022;-73
2021/04/26 04:02:09;;;;;;;;;;;;;;;-142.75;64.50;79520.16;5073357;28;19916;-73
2021/04/26 04:04:35;;;;;;;;;;;;;;;-142.75;64.37;79526.06;5091892;28;20377;-73
2021/04/26 04:07:00;;;;;;;;;;;;;;;-142.75;64.31;79522.13;5091785;28;19916;-73
2021/04/26 04:09:25;;;;;;;;;;;;;;;-142.75;64.51;79526.06;5091583;28;19920;-73
2021/04/26 04:11:50;;;;;;;;;;;;;;;-142.75;64.64;79520.16;5073337;28;19931;-73
2021/04/26 04:14:15;;;;;;;;;;;;;;;-142.75;64.98;79508.34;5091686;28;19916;-73
2021/04/26 04:16:41;;;;;;;;;;;;;;;-142.75;65.18;79510.31;5104027;28;19915;-72
2021/04/26 04:19:06;;;;;;;;;;;;;;;-142.75;64.88;79520.16;5111852;28;20450;-73
2021/04/26 04:21:31;;;;;;;;;;;;;;;-142.75;64.57;79528.03;5111678;28;19922;-73
2021/04/26 04:23:56;;;;;;;;;;;;;;;-142.75;64.96;79520.16;5085325;28;19984;-74
2021/04/26 04:26:21;;;;;;;;;;;;;;;-142.75;64.88;79516.22;5111878;28;19926;-73
2021/04/26 04:28:47;;;;;;;;;;;;;;;-142.75;65.15;79520.16;5103511;28;19990;-73
2021/04/26 04:31:12;;;;;;;;;;;;;;;-142.75;65.07;79514.25;5077563;28;19919;-72
2021/04/26 04:33:37;;;;;;;;;;;;;;;-142.75;65.26;79496.50;5093607;28;19911;-73
2021/04/26 04:36:03;;;;;;;;;;;;;;;-142.75;64.89;79500.47;5111754;28;19939;-72
2021/04/26 04:38:28;;;;;;;;;;;;;;;-142.75;64.38;79520.16;5093485;28;19916;-73
2021/04/26 04:40:54;;;;;;;;;;;;;;;-142.75;65.02;79526.06;5111477;28;20319;-74
2021/04/26 04:43:20;;;;;;;;;;;;;;;-142.75;65.12;79531.97;5106848;28;19962;-73
2021/04/26 04:45:45;;;;;;;;;;;;;;;-142.75;65.03;79535.91;5091061;28;19943;-73
2021/04/26 04:48:10;;;;;;;;;;;;;;;-142.75;65.43;79520.16;5073091;28;19919;-72
2021/04/26 04:50:35;;;;;;;;;;;;;;;-142.75;65.77;79465.00;5072861;28;19920;-73
2021/04/26 04:53:00;;;;;;;;;;;;;;;-142.75;65.39;79472.88;5084571;28;19916;-73
2021/04/26 04:55:26;;;;;;;;;;;;;;;-142.75;65.21;79476.81;5111476;28;19922;-73
2021/04/26 04:57:51;;;;;;;;;;;;;;;-142.75;65.48;79461.06;5103067;28;19961;-73
2021/04/26 05:00:16;;;;;;;;;;;;;;;-142.75;65.62;79457.13;5111403;28;20289;-73
2021/04/26 05:02:41;;;;;;;;;;;;;;;-142.75;65.43;79445.28;5083163;28;19919;-72
2021/04/26 05:05:07;;;;;;;;;;;;;;;-142.75;65.09;79441.34;5111437;28;20273;-74
2021/04/26 05:07:32;;;;;;;;;;;;;;;-142.75;64.99;79433.47;5085144;28;19920;-73
2021/04/26 05:09:57;;;;;;;;;;;;;;;-142.75;64.79;79421.66;5103360;22;19925;-71
2021/04/26 05:12:23;;;;;;;;;;;;;;;-142.75;64.77;79398.03;5050024;28;19924;-74
2021/04/26 05:14:49;;;;;;;;;;;;;;;-142.75;64.54;79378.31;5070121;28;19931;-74
2021/04/26 05:17:15;;;;;;;;;;;;;;;-142.75;64.23;79352.72;5070949;28;19916;-74
2021/04/26 05:19:40;;;;;;;;;;;;;;;-142.75;63.89;79319.22;5070756;28;19924;-73
2021/04/26 05:22:06;;;;;;;;;;;;;;;-142.75;63.37;79269.97;5069491;28;19959;-74
2021/04/26 05:24:31;;;;;;;;;;;;;;;-142.75;62.43;79214.81;5071225;28;20285;-75
2021/04/26 05:26:56;;;;;;;;;;;;;;;-142.75;61.55;79169.53;5071222;28;20062;-74
2021/04/26 05:29:21;;;;;;;;;;;;;;;-142.75;61.03;79122.25;5071712;28;20416;-74
2021/04/26 05:31:47;;;;;;;;;;;;;;;-142.75;60.35;79055.28;5069626;28;19916;-74
2021/04/26 05:34:12;;;;;;;;;;;;;;;-142.75;59.07;78956.78;5071004;28;19916;-74
2021/04/26 05:36:37;;;;;;;;;;;;;;;-142.75;58.10;78866.19;5071257;28;19925;-74
2021/04/26 05:39:03;;;;;;;;;;;;;;;-142.75;55.88;78734.22;5070954;28;19987;-75
2021/04/26 05:41:28;;;;;;;;;;;;;;;-142.75;54.57;78710.59;5071079;28;19916;-74
2021/04/26 05:43:53;;;;;;;;;;;;;;;-142.75;53.75;78627.88;5071198;28;19916;-74
2021/04/26 05:46:19;;;;;;;;;;;;;;;-142.75;52.53;78531.38;5071280;28;20275;-75
2021/04/26 05:48:44;;;;;;;;;;;;;;;-142.75;51.23;78511.69;5055234;28;19921;-75
2021/04/26 05:51:09;;;;;;;;;;;;;;;-142.75;50.94;78387.59;5059036;28;19963;-75
2021/04/26 05:53:34;;;;;;;;;;;;;;;-142.75;49.16;78318.69;5071468;28;19974;-75
2021/04/26 05:56:00;;;;;;;;;;;;;;;-142.75;49.51;78281.25;5072061;28;19923;-73
2021/04/26 05:58:26;;;;;;;;;;;;;;;-142.75;48.27;78232.03;5073283;28;19917;-74
2021/04/26 06:00:51;;;;;;;;;;;;;;;-142.75;47.01;78243.84;5072425;28;19920;-76
2021/04/26 06:03:17;;;;;;;;;;;;;;;-142.75;46.51;78157.19;5073966;28;19922;-75
2021/04/26 06:05:42;;;;;;;;;;;;;;;-142.75;46.23;78153.25;5074376;28;19933;-74
2021/04/26 06:08:07;;;;;;;;;;;;;;;-142.75;45.17;78137.50;5073157;28;19920;-76
2021/04/26 06:10:32;;;;;;;;;;;;;;;-142.75;45.33;78102.06;5086059;28;20389;-75
2021/04/26 06:12:57;;;;;;;;;;;;;;;-142.75;44.88;78098.13;5072603;28;19920;-75
2021/04/26 06:15:23;;;;;;;;;;;;;;;-142.75;43.88;78017.38;5073599;28;19924;-74
2021/04/26 06:17:49;;;;;;;;;;;;;;;-142.75;43.12;78039.03;5073350;28;19974;-75
2021/04/26 06:20:14;;;;;;;;;;;;;;;-142.75;43.36;77979.97;5055520;28;19923;-75
2021/04/26 06:22:39;;;;;;;;;;;;;;;-142.75;42.46;77930.75;5073109;28;19927;-74
2021/04/26 06:25:05;;;;;;;;;;;;;;;-142.75;41.89;77889.38;5074069;28;19921;-76
2021/04/26 06:27:30;;;;;;;;;;;;;;;-142.75;41.88;77857.88;5055783;28;20289;-74
2021/04/26 06:29:55;;;;;;;;;;;;;;;-142.75;41.40;77867.72;5073038;28;19966;-74
2021/04/26 06:32:23;;;;;;;;;;;;;;;-142.75;39.56;77846.06;5072875;28;19936;-73
2021/04/26 06:34:48;;;;;;;;;;;;;;;-142.75;39.45;77873.63;5055649;28;20019;-74
2021/04/26 06:37:14;;;;;;;;;;;;;;;-142.75;40.26;77806.69;5072668;28;20003;-74
2021/04/26 06:39:39;;;;;;;;;;;;;;;-142.75;40.28;77779.13;5072822;28;19916;-74
2021/04/26 06:42:04;;;;;;;;;;;;;;;-142.75;40.19;77796.84;5072424;28;20336;-74
2021/04/26 06:44:30;;;;;;;;;;;;;;;-142.75;38.36;77773.22;5073277;28;19916;-75
2021/04/26 06:46:55;;;;;;;;;;;;;;;-142.75;39.67;77727.94;5073252;28;19975;-74
2021/04/26 06:49:20;;;;;;;;;;;;;;;-142.75;37.45;77625.53;5072792;28;20027;-75
2021/04/26 06:51:48;;;;;;;;;;;;;;;-142.75;38.42;77601.91;5072127;28;19917;-74
2021/04/26 06:54:13;;;;;;;;;;;;;;;-142.75;38.21;77605.84;5072719;28;19916;-76
2021/04/26 06:56:39;;;;;;;;;;;;;;;-142.75;36.93;77523.16;5073797;28;20003;-76
2021/04/26 06:59:04;;;;;;;;;;;;;;;-142.75;36.67;77436.50;5093752;28;19959;-76
2021/04/26 07:01:29;;;;;;;;;;;;;;;-142.75;36.42;77448.34;5092920;28;19916;-76
2021/04/26 07:03:54;;;;;;;;;;;;;;;-142.75;35.45;77373.50;5075868;28;20628;-77
2021/04/26 07:06:19;;;;;;;;;;;;;;;-142.75;35.32;77332.16;5080115;28;20448;-78
2021/04/26 07:08:45;;;;;;;;;;;;;;;-142.75;34.93;77320.34;5075756;28;19920;-76
2021/04/26 07:11:10;;;;;;;;;;;;;;;-142.75;34.41;77279.00;5055631;28;19927;-75
2021/04/26 07:13:35;;;;;;;;;;;;;;;-142.75;33.12;77302.63;5072534;28;19956;-74
2021/04/26 07:16:00;;;;;;;;;;;;;;;-142.75;35.46;77365.63;5073004;28;19928;-73
2021/04/26 07:18:25;;;;;;;;;;;;;;;-142.75;34.96;77286.88;5054829;28;19930;-74
2021/04/26 07:20:51;;;;;;;;;;;;;;;-142.75;33.67;77235.69;5073187;28;19924;-74
2021/04/26 07:23:18;;;;;;;;;;;;;;;-142.75;33.62;77192.38;5073098;28;19920;-74
2021/04/26 07:25:43;;;;;;;;;;;;;;;-142.75;32.87;77186.47;5072094;28;19920;-73
2021/04/26 07:28:08;;;;;;;;;;;;;;;-142.75;32.30;77111.66;5072677;28;20401;-74
2021/04/26 07:30:34;;;;;;;;;;;;;;;-142.75;31.55;77109.69;5071564;28;20035;-74
2021/04/26 07:32:59;;;;;;;;;;;;;;;-142.75;31.98;77064.41;5072708;28;19927;-74
2021/04/26 07:35:24;;;;;;;;;;;;;;;-142.75;31.17;77007.31;5073122;28;19916;-76
2021/04/26 07:37:49;;;;;;;;;;;;;;;-142.75;30.93;76975.81;5051473;28;19936;-76
2021/04/26 07:40:15;;;;;;;;;;;;;;;-142.75;30.57;77058.50;5087537;28;19958;-75
2021/04/26 07:42:41;;;;;;;;;;;;;;;-142.75;30.90;77058.50;5092210;28;19916;-72
2021/04/26 07:45:07;;;;;;;;;;;;;;;-142.75;30.24;77070.31;5073714;28;19916;-74
2021/04/26 07:47:32;;;;;;;;;;;;;;;-142.75;31.39;77038.81;5092210;28;19984;-75
2021/04/26 07:49:57;;;;;;;;;;;;;;;-142.75;30.44;76983.69;5091842;28;19921;-74
2021/04/26 07:52:22;;;;;;;;;;;;;;;-142.75;30.39;76975.81;5091749;28;19954;-75
2021/04/26 07:54:48;;;;;;;;;;;;;;;-142.75;29.82;76999.44;5091802;28;19927;-74
2021/04/26 07:57:13;;;;;;;;;;;;;;;-142.75;30.91;76958.09;5092095;28;20007;-75
2021/04/26 07:59:38;;;;;;;;;;;;;;;-142.75;29.51;76930.53;5073116;28;20002;-76
2021/04/26 08:02:03;;;;;;;;;;;;;;;-142.75;29.86;76954.16;5090423;28;20172;-75
2021/04/26 08:04:29;;;;;;;;;;;;;;;-142.75;30.59;77036.84;5092142;28;19924;-75
2021/04/26 08:06:54;;;;;;;;;;;;;;;-142.75;30.91;76971.88;5087256;28;19916;-74
2021/04/26 08:09:19;;;;;;;;;;;;;;;-142.75;30.51;76901.00;5077669;28;19991;-73
2021/04/26 08:11:45;;;;;;;;;;;;;;;-142.75;29.53;76828.16;5053134;28;19916;-76
2021/04/26 08:14:10;;;;;;;;;;;;;;;-142.75;27.33;76830.13;5054052;28;19963;-75
2021/04/26 08:16:35;;;;;;;;;;;;;;;-142.75;28.91;76796.69;5071733;28;20018;-75
2021/04/26 08:19:01;;;;;;;;;;;;;;;-142.75;28.23;76814.38;5071221;28;20567;-75
2021/04/26 08:21:26;;;;;;;;;;;;;;;-142.75;28.10;76782.91;5054037;28;19996;-73
2021/04/26 08:23:53;;;;;;;;;;;;;;;-142.75;27.80;76775.03;5071803;28;20404;-72
2021/04/26 08:26:18;;;;;;;;;;;;;;;-142.75;28.16;76719.91;5072853;28;19983;-73
2021/04/26 08:28:43;;;;;;;;;;;;;;;-142.75;27.78;76702.19;5071744;28;20059;-72
2021/04/26 08:31:08;;;;;;;;;;;;;;;-142.75;28.00;76660.84;5069438;28;20297;-74
2021/04/26 08:33:35;;;;;;;;;;;;;;;-142.75;27.65;76708.09;5055460;28;19924;-73
2021/04/26 08:36:00;;;;;;;;;;;;;;;-142.75;27.59;76725.81;5071945;28;19916;-72
2021/04/26 08:38:25;;;;;;;;;;;;;;;-142.75;27.52;76621.47;5054223;28;19955;-72
2021/04/26 08:40:51;;;;;;;;;;;;;;;-142.75;27.20;76586.03;5072210;28;20274;-73
2021/04/26 08:43:16;;;;;;;;;;;;;;;-142.75;27.49;76621.47;5072988;28;20460;-72
2021/04/26 08:45:41;;;;;;;;;;;;;;;-142.75;28.02;76688.41;5073125;28;20296;-73
2021/04/26 08:48:07;;;;;;;;;;;;;;;-142.75;27.68;76676.59;5055516;28;19916;-72
2021/04/26 08:50:32;;;;;;;;;;;;;;;-142.75;27.20;76597.84;5054732;28;19924;-73
2021/04/26 08:52:57;;;;;;;;;;;;;;;-142.75;27.17;76591.94;5069557;28;19923;-73
2021/04/26 08:55:22;;;;;;;;;;;;;;;-142.75;27.05;76536.84;5071894;28;19939;-73
2021/04/26 08:57:49;;;;;;;;;;;;;;;-142.75;26.55;76499.44;5072469;28;20004;-74
2021/04/26 09:00:15;;;;;;;;;;;;;;;-142.75;26.55;76489.59;5070259;28;19917;-73
2021/04/26 09:02:43;;;;;;;;;;;;;;;-142.75;26.65;76479.75;5070720;28;19920;-73
2021/04/26 09:05:09;;;;;;;;;;;;;;;-142.75;26.40;76475.81;5046707;28;19917;-72
2021/04/26 09:07:35;;;;;;;;;;;;;;;-142.75;26.42;76519.13;5071507;28;19917;-76
2021/04/26 09:10:00;;;;;;;;;;;;;;;-142.75;26.56;76507.31;5071851;28;19928;-74
2021/04/26 09:12:26;;;;;;;;;;;;;;;-142.75;26.55;76452.19;5073129;28;19916;-75
2021/04/26 09:14:53;;;;;;;;;;;;;;;-142.75;27.17;76401.00;5055360;28;19924;-73
2021/04/26 09:17:30;;;;;;;;;;;;;;;-142.75;25.62;76456.13;5053977;28;19923;-74
2021/04/26 09:20:00;;;;;;;;;;;;;;;-142.75;26.53;76479.75;5072746;28;19923;-77
2021/04/26 09:22:43;;;;;;;;;;;;;;;-142.75;26.32;76511.25;5053511;28;19924;-74
2021/04/26 09:25:18;;;;;;;;;;;;;;;-142.75;26.18;76471.88;5070268;28;19921;-76
2021/04/26 09:27:53;;;;;;;;;;;;;;;-142.75;26.09;76424.63;5070482;28;20011;-77
2021/04/26 09:30:33;;;;;;;;;;;;;;;-142.75;26.32;76371.47;5052291;28;20803;-77
2021/04/26 09:33:13;;;;;;;;;;;;;;;-142.75;25.78;76401.00;5055853;28;19917;-77
2021/04/26 09:35:38;;;;;;;;;;;;;;;-142.75;25.80;76332.13;5075726;28;19988;-76
2021/04/26 09:38:21;;;;;;;;;;;;;;;-142.75;26.05;76340.00;5060256;28;19962;-76
2021/04/26 09:41:05;;;;;;;;;;;;;;;-142.75;25.44;76401.00;5076821;28;19956;-76
2021/04/26 09:43:30;;;;;;;;;;;;;;;-142.75;25.51;76373.44;5061885;28;20362;-76
2021/04/26 09:45:56;;;;;;;;;;;;;;;-142.75;25.16;76312.44;5075748;28;20058;-76
2021/04/26 09:48:23;;;;;;;;;;;;;;;-142.75;25.45;76395.09;5094297;28;19916;-74
2021/04/26 09:50:48;;;;;;;;;;;;;;;-142.75;25.78;76462.03;5082414;28;19931;-72
2021/04/26 09:53:14;;;;;;;;;;;;;;;-142.75;25.61;76330.16;5074619;28;19916;-76
2021/04/26 09:55:39;;;;;;;;;;;;;;;-142.75;25.55;76334.09;5073528;28;19936;-77
2021/04/26 09:58:04;;;;;;;;;;;;;;;-142.75;24.86;76278.97;5073221;28;19916;-77
2021/04/26 10:00:29;;;;;;;;;;;;;;;-142.75;26.89;76450.22;5073144;28;20007;-77
2021/04/26 10:02:54;;;;;;;;;;;;;;;-142.75;25.58;76369.50;5054918;28;19924;-75
2021/04/26 10:05:20;;;;;;;;;;;;;;;-142.75;26.16;76219.91;5069242;28;19923;-78
2021/04/26 10:07:48;;;;;;;;;;;;;;;-142.75;25.37;76184.50;5055045;28;19916;-77
2021/04/26 10:10:13;;;;;;;;;;;;;;;-142.75;24.63;76188.44;5073742;28;19924;-76
2021/04/26 10:12:38;;;;;;;;;;;;;;;-142.75;24.47;76194.34;5081125;28;20022;-77
2021/04/26 10:15:03;;;;;;;;;;;;;;;-142.75;25.28;76296.69;5088274;28;20027;-77
2021/04/26 10:17:29;;;;;;;;;;;;;;;-142.75;23.88;76324.25;5055579;28;20007;-77
2021/04/26 10:19:54;;;;;;;;;;;;;;;-142.75;25.48;76304.56;5073243;28;19925;-77
2021/04/26 10:22:37;;;;;;;;;;;;;;;-142.75;26.52;76381.31;5072744;28;19916;-77
2021/04/26 10:25:03;;;;;;;;;;;;;;;-142.75;25.68;76385.25;5073153;28;19924;-78
2021/04/26 10:27:38;;;;;;;;;;;;;;;-142.75;25.15;76278.97;5075631;28;19920;-77
2021/04/26 10:30:06;;;;;;;;;;;;;;;-142.75;25.38;76288.81;5075553;28;19920;-77
2021/04/26 10:32:51;;;;;;;;;;;;;;;-142.75;25.08;76251.41;5072958;28;19924;-75
2021/04/26 10:35:16;;;;;;;;;;;;;;;-142.75;24.21;76198.28;5094937;28;19923;-77
2021/04/26 10:37:41;;;;;;;;;;;;;;;-142.75;24.69;76237.63;5094604;28;20301;-76
2021/04/26 10:40:13;;;;;;;;;;;;;;;-142.75;24.43;76237.63;5072844;28;19924;-76
2021/04/26 10:42:44;;;;;;;;;;;;;;;-142.75;24.86;76284.88;5072635;28;19916;-75
2021/04/26 10:45:12;;;;;;;;;;;;;;;-142.75;26.42;76475.81;5073575;28;19948;-76
2021/04/26 10:47:38;;;;;;;;;;;;;;;-142.75;26.63;76397.06;5086276;28;19916;-77
2021/04/26 10:50:06;;;;;;;;;;;;;;;-142.75;26.50;76538.78;5093248;28;20026;-77
2021/04/26 10:52:35;;;;;;;;;;;;;;;-142.75;26.47;76446.28;5075168;28;19916;-74
2021/04/26 10:55:19;;;;;;;;;;;;;;;-142.75;25.80;76330.16;5094230;28;19916;-77
2021/04/26 10:57:51;;;;;;;;;;;;;;;-142.75;25.28;76326.22;5078486;28;19920;-75
2021/04/26 11:02:51;;;;;;;;;;;;;;;-142.75;25.16;76300.63;5073138;28;20385;-75
2021/04/26 11:05:24;;;;;;;;;;;;;;;-142.75;25.35;76304.56;5073001;28;19923;-76
2021/04/26 11:07:56;;;;;;;;;;;;;;;-142.75;24.58;76458.09;5072717;28;19959;-77
2021/04/26 11:10:28;;;;;;;;;;;;;;;-142.75;25.93;76410.84;5072132;28;19928;-77
2021/04/26 11:12:53;;;;;;;;;;;;;;;-142.75;26.81;76469.91;5054703;28;19925;-76
2021/04/26 11:15:19;;;;;;;;;;;;;;;-142.75;26.12;76479.75;5072022;28;20387;-76
2021/04/26 11:17:45;;;;;;;;;;;;;;;-142.75;26.72;76507.31;5053756;28;20395;-77
2021/04/26 11:20:12;;;;;;;;;;;;;;;-142.75;27.31;76460.06;5071765;28;20011;-74
2021/04/26 11:22:38;;;;;;;;;;;;;;;-142.75;25.96;76440.38;5053824;28;20394;-74
2021/04/26 11:25:05;;;;;;;;;;;;;;;-142.75;27.27;76576.19;5071747;28;19916;-76
2021/04/26 11:27:30;;;;;;;;;;;;;;;-142.75;26.58;76448.25;5072557;28;20003;-77
2021/04/26 11:29:56;;;;;;;;;;;;;;;-142.75;26.46;76393.13;5054678;28;20035;-78
2021/04/26 11:32:22;;;;;;;;;;;;;;;-142.75;26.62;76747.47;5087515;28;19928;-76
2021/04/26 11:34:47;;;;;;;;;;;;;;;-142.75;28.70;76798.66;5092105;28;19962;-75
2021/04/26 11:37:13;;;;;;;;;;;;;;;-142.75;29.16;76916.75;5091767;28;20339;-77
2021/04/26 11:39:40;;;;;;;;;;;;;;;-142.75;29.40;76938.41;5073790;28;19916;-77
2021/04/26 11:42:06;;;;;;;;;;;;;;;-142.75;28.68;76753.38;5091407;28;19935;-75
2021/04/26 11:44:32;;;;;;;;;;;;;;;-142.75;29.01;76761.25;5091976;28;19924;-74
2021/04/26 11:47:01;;;;;;;;;;;;;;;-142.75;28.60;76792.75;5081592;28;19923;-75
2021/04/26 11:49:26;;;;;;;;;;;;;;;-142.75;29.22;76938.41;5049323;28;19921;-76
2021/04/26 11:51:53;;;;;;;;;;;;;;;-142.75;29.89;76946.28;5087560;28;19920;-77
2021/04/26 11:54:20;;;;;;;;;;;;;;;-142.75;30.88;76958.09;5091315;28;19916;-77
2021/04/26 11:57:04;;;;;;;;;;;;;;;-142.75;30.37;76987.63;5084058;28;19927;-76
2021/04/26 11:59:29;;;;;;;;;;;;;;;-142.75;31.03;77048.66;5071990;28;20411;-75
2021/04/26 12:01:55;;;;;;;;;;;;;;;-142.75;30.90;77090.00;5070401;28;20019;-76
2021/04/26 12:04:46;;;;;;;;;;;;;;;-142.75;31.70;77133.31;5072069;28;19916;-75
2021/04/26 12:07:12;;;;;;;;;;;;;;;-142.75;33.08;77172.69;5068368;28;19955;-76
2021/04/26 12:09:38;;;;;;;;;;;;;;;-142.75;31.62;77239.63;5071809;28;19960;-76
2021/04/26 12:12:05;;;;;;;;;;;;;;;-142.75;33.07;77267.19;5062520;28;19916;-77
2021/04/26 12:14:30;;;;;;;;;;;;;;;-142.75;31.51;77300.66;5073222;28;19924;-76
2021/04/26 12:17:15;;;;;;;;;;;;;;;-142.75;33.66;77424.69;5091315;28;20304;-75
2021/04/26 12:19:40;;;;;;;;;;;;;;;-142.75;32.75;77493.63;5051692;28;19923;-76
2021/04/26 12:22:05;;;;;;;;;;;;;;;-142.75;34.66;77403.03;5070701;28;19995;-76
2021/04/26 12:24:30;;;;;;;;;;;;;;;-142.75;35.85;77359.72;5052927;28;19955;-74
2021/04/26 12:26:56;;;;;;;;;;;;;;;-142.75;34.78;77434.53;5070771;28;20011;-74